sensor_id;sensor_type;location;lat;lon;timestamp;P1;durP1;ratioP1;P2;durP2;ratioP2
10383;SDS011;5238;43.508;4.980;2023-02-20T00:02:18;4.22;;;2.20;;
10383;SDS011;5238;43.508;4.980;2023-02-20T00:05:00;3.13;;;2.00;;
10383;SDS011;5238;43.508;4.980;2023-02-20T00:07:29;2.88;;;2.03;;
10383;SDS011;5238;43.508;4.980;2023-02-20T00:09:57;2.03;;;1.45;;
10383;SDS011;5238;43.508;4.980;2023-02-20T00:12:29;1.30;;;1.20;;
10383;SDS011;5238;43.508;4.980;2023-02-20T00:15:13;1.20;;;1.10;;
10383;SDS011;5238;43.508;4.980;2023-02-20T00:17:55;1.40;;;1.20;;
10383;SDS011;5238;43.508;4.980;2023-02-20T00:20:28;1.73;;;1.63;;
10383;SDS011;5238;43.508;4.980;2023-02-20T00:22:57;1.50;;;1.30;;
10383;SDS011;5238;43.508;4.980;2023-02-20T00:25:33;2.15;;;1.25;;
10383;SDS011;5238;43.508;4.980;2023-02-20T00:28:16;1.70;;;1.23;;
10383;SDS011;5238;43.508;4.980;2023-02-20T00:30:50;1.40;;;1.30;;
10383;SDS011;5238;43.508;4.980;2023-02-20T00:33:21;2.13;;;1.40;;
10383;SDS011;5238;43.508;4.980;2023-02-20T00:35:50;1.77;;;1.40;;
10383;SDS011;5238;43.508;4.980;2023-02-20T00:38:18;1.45;;;1.35;;
10383;SDS011;5238;43.508;4.980;2023-02-20T00:40:49;2.63;;;1.30;;
10383;SDS011;5238;43.508;4.980;2023-02-20T00:43:31;1.35;;;1.25;;
10383;SDS011;5238;43.508;4.980;2023-02-20T00:46:06;1.92;;;1.35;;
10383;SDS011;5238;43.508;4.980;2023-02-20T00:48:44;1.50;;;1.15;;
10383;SDS011;5238;43.508;4.980;2023-02-20T00:51:21;1.67;;;1.35;;
10383;SDS011;5238;43.508;4.980;2023-02-20T00:53:50;1.70;;;1.33;;
10383;SDS011;5238;43.508;4.980;2023-02-20T00:56:17;1.50;;;1.40;;
10383;SDS011;5238;43.508;4.980;2023-02-20T00:59:00;2.03;;;1.45;;
10383;SDS011;5238;43.508;4.980;2023-02-20T01:01:41;1.38;;;1.27;;
10383;SDS011;5238;43.508;4.980;2023-02-20T01:04:22;1.42;;;1.05;;
10383;SDS011;5238;43.508;4.980;2023-02-20T01:06:59;1.33;;;1.23;;
10383;SDS011;5238;43.508;4.980;2023-02-20T01:09:42;1.75;;;1.50;;
10383;SDS011;5238;43.508;4.980;2023-02-20T01:12:24;1.63;;;1.42;;
10383;SDS011;5238;43.508;4.980;2023-02-20T01:14:54;1.45;;;1.33;;
10383;SDS011;5238;43.508;4.980;2023-02-20T01:17:35;1.40;;;1.20;;
10383;SDS011;5238;43.508;4.980;2023-02-20T01:20:26;2.25;;;1.60;;
10383;SDS011;5238;43.508;4.980;2023-02-20T01:23:13;1.85;;;1.40;;
10383;SDS011;5238;43.508;4.980;2023-02-20T01:25:48;1.50;;;1.35;;
10383;SDS011;5238;43.508;4.980;2023-02-20T01:28:30;1.83;;;1.45;;
10383;SDS011;5238;43.508;4.980;2023-02-20T01:31:02;3.38;;;1.60;;
10383;SDS011;5238;43.508;4.980;2023-02-20T01:33:43;1.98;;;1.38;;
10383;SDS011;5238;43.508;4.980;2023-02-20T01:39:39;2.15;;;1.73;;
10383;SDS011;5238;43.508;4.980;2023-02-20T01:42:07;1.60;;;1.33;;
10383;SDS011;5238;43.508;4.980;2023-02-20T01:45:15;1.40;;;1.30;;
10383;SDS011;5238;43.508;4.980;2023-02-20T01:47:48;4.50;;;1.42;;
10383;SDS011;5238;43.508;4.980;2023-02-20T01:50:20;1.95;;;1.60;;
10383;SDS011;5238;43.508;4.980;2023-02-20T01:53:06;2.10;;;1.60;;
10383;SDS011;5238;43.508;4.980;2023-02-20T01:55:46;3.50;;;1.52;;
10383;SDS011;5238;43.508;4.980;2023-02-20T01:58:29;2.42;;;1.52;;
10383;SDS011;5238;43.508;4.980;2023-02-20T02:01:09;3.00;;;1.65;;
10383;SDS011;5238;43.508;4.980;2023-02-20T02:03:40;1.77;;;1.40;;
10383;SDS011;5238;43.508;4.980;2023-02-20T02:06:22;1.75;;;1.60;;
10383;SDS011;5238;43.508;4.980;2023-02-20T02:08:53;1.55;;;1.30;;
10383;SDS011;5238;43.508;4.980;2023-02-20T02:11:43;2.75;;;2.17;;
10383;SDS011;5238;43.508;4.980;2023-02-20T02:14:12;2.72;;;2.40;;
10383;SDS011;5238;43.508;4.980;2023-02-20T02:16:51;3.90;;;3.28;;
10383;SDS011;5238;43.508;4.980;2023-02-20T02:22:53;3.97;;;2.92;;
10383;SDS011;5238;43.508;4.980;2023-02-20T02:25:51;3.85;;;2.08;;
10383;SDS011;5238;43.508;4.980;2023-02-20T02:28:47;3.15;;;1.85;;
10383;SDS011;5238;43.508;4.980;2023-02-20T02:31:52;2.35;;;2.10;;
10383;SDS011;5238;43.508;4.980;2023-02-20T02:34:50;2.33;;;1.63;;
10383;SDS011;5238;43.508;4.980;2023-02-20T02:38:13;3.10;;;1.67;;
10383;SDS011;5238;43.508;4.980;2023-02-20T02:40:51;2.78;;;2.38;;
10383;SDS011;5238;43.508;4.980;2023-02-20T02:43:28;3.63;;;2.30;;
10383;SDS011;5238;43.508;4.980;2023-02-20T02:46:12;2.97;;;1.92;;
10383;SDS011;5238;43.508;4.980;2023-02-20T02:48:58;3.95;;;2.55;;
10383;SDS011;5238;43.508;4.980;2023-02-20T02:51:51;3.13;;;2.22;;
10383;SDS011;5238;43.508;4.980;2023-02-20T02:54:38;3.72;;;2.28;;
10383;SDS011;5238;43.508;4.980;2023-02-20T02:57:17;4.93;;;2.65;;
10383;SDS011;5238;43.508;4.980;2023-02-20T02:59:48;2.72;;;2.42;;
10383;SDS011;5238;43.508;4.980;2023-02-20T03:02:24;3.17;;;2.28;;
10383;SDS011;5238;43.508;4.980;2023-02-20T03:04:55;3.05;;;2.42;;
10383;SDS011;5238;43.508;4.980;2023-02-20T03:07:27;4.80;;;2.50;;
10383;SDS011;5238;43.508;4.980;2023-02-20T03:10:08;3.28;;;2.22;;
10383;SDS011;5238;43.508;4.980;2023-02-20T03:12:52;3.47;;;2.25;;
10383;SDS011;5238;43.508;4.980;2023-02-20T03:15:35;4.63;;;2.80;;
10383;SDS011;5238;43.508;4.980;2023-02-20T03:18:11;5.72;;;3.20;;
10383;SDS011;5238;43.508;4.980;2023-02-20T03:20:55;7.57;;;2.80;;
10383;SDS011;5238;43.508;4.980;2023-02-20T03:23:39;4.50;;;2.28;;
10383;SDS011;5238;43.508;4.980;2023-02-20T03:26:27;5.20;;;2.92;;
10383;SDS011;5238;43.508;4.980;2023-02-20T03:29:02;3.33;;;2.38;;
10383;SDS011;5238;43.508;4.980;2023-02-20T03:31:36;4.30;;;2.50;;
10383;SDS011;5238;43.508;4.980;2023-02-20T03:34:09;2.85;;;2.10;;
10383;SDS011;5238;43.508;4.980;2023-02-20T03:36:58;3.70;;;2.15;;
10383;SDS011;5238;43.508;4.980;2023-02-20T03:42:54;3.45;;;2.33;;
10383;SDS011;5238;43.508;4.980;2023-02-20T03:45:42;5.95;;;2.70;;
10383;SDS011;5238;43.508;4.980;2023-02-20T03:48:31;4.68;;;2.75;;
10383;SDS011;5238;43.508;4.980;2023-02-20T03:51:03;3.28;;;2.40;;
10383;SDS011;5238;43.508;4.980;2023-02-20T03:53:49;2.92;;;2.38;;
10383;SDS011;5238;43.508;4.980;2023-02-20T03:56:21;3.13;;;2.53;;
10383;SDS011;5238;43.508;4.980;2023-02-20T03:59:03;3.65;;;2.72;;
10383;SDS011;5238;43.508;4.980;2023-02-20T04:01:42;3.10;;;2.47;;
10383;SDS011;5238;43.508;4.980;2023-02-20T04:04:13;4.60;;;2.78;;
10383;SDS011;5238;43.508;4.980;2023-02-20T04:06:58;2.90;;;2.45;;
10383;SDS011;5238;43.508;4.980;2023-02-20T04:09:44;2.90;;;2.70;;
10383;SDS011;5238;43.508;4.980;2023-02-20T04:12:26;3.53;;;2.60;;
10383;SDS011;5238;43.508;4.980;2023-02-20T04:15:09;4.40;;;3.13;;
10383;SDS011;5238;43.508;4.980;2023-02-20T04:17:42;3.42;;;2.92;;
10383;SDS011;5238;43.508;4.980;2023-02-20T04:20:14;3.20;;;2.90;;
10383;SDS011;5238;43.508;4.980;2023-02-20T04:22:44;7.25;;;3.30;;
10383;SDS011;5238;43.508;4.980;2023-02-20T04:25:18;4.10;;;3.00;;
10383;SDS011;5238;43.508;4.980;2023-02-20T04:27:55;4.15;;;3.13;;
10383;SDS011;5238;43.508;4.980;2023-02-20T04:30:24;4.00;;;3.22;;
10383;SDS011;5238;43.508;4.980;2023-02-20T04:33:05;3.15;;;2.80;;
10383;SDS011;5238;43.508;4.980;2023-02-20T04:35:36;3.90;;;3.13;;
10383;SDS011;5238;43.508;4.980;2023-02-20T04:38:16;4.38;;;2.83;;
10383;SDS011;5238;43.508;4.980;2023-02-20T04:40:52;3.92;;;3.15;;
10383;SDS011;5238;43.508;4.980;2023-02-20T04:43:38;3.70;;;2.83;;
10383;SDS011;5238;43.508;4.980;2023-02-20T04:46:08;5.18;;;3.53;;
10383;SDS011;5238;43.508;4.980;2023-02-20T04:48:35;4.05;;;3.30;;
10383;SDS011;5238;43.508;4.980;2023-02-20T04:51:16;3.65;;;3.20;;
10383;SDS011;5238;43.508;4.980;2023-02-20T04:53:48;4.32;;;2.55;;
10383;SDS011;5238;43.508;4.980;2023-02-20T04:56:28;2.92;;;2.47;;
10383;SDS011;5238;43.508;4.980;2023-02-20T04:58:57;4.00;;;2.67;;
10383;SDS011;5238;43.508;4.980;2023-02-20T05:01:34;3.20;;;2.88;;
10383;SDS011;5238;43.508;4.980;2023-02-20T05:04:05;4.03;;;2.72;;
10383;SDS011;5238;43.508;4.980;2023-02-20T05:06:38;3.38;;;2.88;;
10383;SDS011;5238;43.508;4.980;2023-02-20T05:09:17;3.63;;;2.78;;
10383;SDS011;5238;43.508;4.980;2023-02-20T05:11:46;3.70;;;2.70;;
10383;SDS011;5238;43.508;4.980;2023-02-20T05:14:16;3.60;;;2.70;;
10383;SDS011;5238;43.508;4.980;2023-02-20T05:19:35;4.70;;;3.40;;
10383;SDS011;5238;43.508;4.980;2023-02-20T05:22:12;4.88;;;3.53;;
10383;SDS011;5238;43.508;4.980;2023-02-20T05:24:43;7.90;;;3.70;;
10383;SDS011;5238;43.508;4.980;2023-02-20T05:27:33;5.50;;;3.65;;
10383;SDS011;5238;43.508;4.980;2023-02-20T05:30:01;6.28;;;4.25;;
10383;SDS011;5238;43.508;4.980;2023-02-20T05:32:30;5.82;;;3.83;;
10383;SDS011;5238;43.508;4.980;2023-02-20T05:35:01;5.75;;;3.80;;
10383;SDS011;5238;43.508;4.980;2023-02-20T05:37:44;6.63;;;4.40;;
10383;SDS011;5238;43.508;4.980;2023-02-20T05:40:13;6.00;;;3.88;;
10383;SDS011;5238;43.508;4.980;2023-02-20T05:42:42;6.28;;;4.65;;
10383;SDS011;5238;43.508;4.980;2023-02-20T05:45:12;5.45;;;4.20;;
10383;SDS011;5238;43.508;4.980;2023-02-20T05:48:04;6.20;;;4.55;;
10383;SDS011;5238;43.508;4.980;2023-02-20T05:50:39;8.98;;;5.05;;
10383;SDS011;5238;43.508;4.980;2023-02-20T05:53:11;8.55;;;5.38;;
10383;SDS011;5238;43.508;4.980;2023-02-20T05:55:46;8.23;;;6.03;;
10383;SDS011;5238;43.508;4.980;2023-02-20T05:58:13;7.88;;;6.07;;
10383;SDS011;5238;43.508;4.980;2023-02-20T06:00:48;7.65;;;6.05;;
10383;SDS011;5238;43.508;4.980;2023-02-20T06:03:22;7.35;;;6.35;;
10383;SDS011;5238;43.508;4.980;2023-02-20T06:05:49;7.40;;;6.43;;
10383;SDS011;5238;43.508;4.980;2023-02-20T06:08:41;8.20;;;6.90;;
10383;SDS011;5238;43.508;4.980;2023-02-20T06:11:22;9.43;;;7.78;;
10383;SDS011;5238;43.508;4.980;2023-02-20T06:13:51;9.07;;;7.30;;
10383;SDS011;5238;43.508;4.980;2023-02-20T06:16:37;9.48;;;7.22;;
10383;SDS011;5238;43.508;4.980;2023-02-20T06:19:09;11.07;;;7.45;;
10383;SDS011;5238;43.508;4.980;2023-02-20T06:21:36;11.90;;;7.57;;
10383;SDS011;5238;43.508;4.980;2023-02-20T06:24:05;10.18;;;7.80;;
10383;SDS011;5238;43.508;4.980;2023-02-20T06:26:37;11.45;;;8.23;;
10383;SDS011;5238;43.508;4.980;2023-02-20T06:29:05;9.98;;;7.63;;
10383;SDS011;5238;43.508;4.980;2023-02-20T06:31:33;11.48;;;8.25;;
10383;SDS011;5238;43.508;4.980;2023-02-20T06:34:00;10.50;;;7.45;;
10383;SDS011;5238;43.508;4.980;2023-02-20T06:36:30;11.30;;;7.88;;
10383;SDS011;5238;43.508;4.980;2023-02-20T06:39:03;13.77;;;8.07;;
10383;SDS011;5238;43.508;4.980;2023-02-20T06:41:40;9.68;;;7.25;;
10383;SDS011;5238;43.508;4.980;2023-02-20T06:44:09;10.50;;;7.65;;
10383;SDS011;5238;43.508;4.980;2023-02-20T06:46:39;10.63;;;8.23;;
10383;SDS011;5238;43.508;4.980;2023-02-20T06:49:12;8.38;;;7.25;;
10383;SDS011;5238;43.508;4.980;2023-02-20T06:51:59;11.52;;;7.97;;
10383;SDS011;5238;43.508;4.980;2023-02-20T06:54:30;12.68;;;9.05;;
10383;SDS011;5238;43.508;4.980;2023-02-20T06:56:58;12.57;;;7.95;;
10383;SDS011;5238;43.508;4.980;2023-02-20T06:59:28;10.02;;;7.63;;
10383;SDS011;5238;43.508;4.980;2023-02-20T07:02:09;10.32;;;8.23;;
10383;SDS011;5238;43.508;4.980;2023-02-20T07:04:52;10.00;;;7.18;;
10383;SDS011;5238;43.508;4.980;2023-02-20T07:07:29;11.52;;;7.53;;
10383;SDS011;5238;43.508;4.980;2023-02-20T07:09:59;10.93;;;7.90;;
10383;SDS011;5238;43.508;4.980;2023-02-20T07:12:32;10.40;;;7.93;;
10383;SDS011;5238;43.508;4.980;2023-02-20T07:15:04;9.60;;;7.72;;
10383;SDS011;5238;43.508;4.980;2023-02-20T07:17:32;9.32;;;7.60;;
10383;SDS011;5238;43.508;4.980;2023-02-20T07:19:59;9.48;;;7.85;;
10383;SDS011;5238;43.508;4.980;2023-02-20T07:22:29;10.13;;;7.30;;
10383;SDS011;5238;43.508;4.980;2023-02-20T07:24:56;9.77;;;7.80;;
10383;SDS011;5238;43.508;4.980;2023-02-20T07:27:23;10.32;;;7.43;;
10383;SDS011;5238;43.508;4.980;2023-02-20T07:29:51;8.32;;;6.97;;
10383;SDS011;5238;43.508;4.980;2023-02-20T07:32:18;8.77;;;7.15;;
10383;SDS011;5238;43.508;4.980;2023-02-20T07:34:47;9.05;;;7.30;;
10383;SDS011;5238;43.508;4.980;2023-02-20T07:40:39;12.60;;;7.55;;
10383;SDS011;5238;43.508;4.980;2023-02-20T07:43:06;13.60;;;7.28;;
10383;SDS011;5238;43.508;4.980;2023-02-20T07:45:37;10.73;;;7.47;;
10383;SDS011;5238;43.508;4.980;2023-02-20T07:48:26;8.68;;;7.10;;
10383;SDS011;5238;43.508;4.980;2023-02-20T07:51:01;8.65;;;7.00;;
10383;SDS011;5238;43.508;4.980;2023-02-20T07:53:28;9.20;;;7.43;;
10383;SDS011;5238;43.508;4.980;2023-02-20T07:55:57;9.27;;;7.80;;
10383;SDS011;5238;43.508;4.980;2023-02-20T07:58:24;8.95;;;7.57;;
10383;SDS011;5238;43.508;4.980;2023-02-20T08:00:53;11.63;;;8.07;;
10383;SDS011;5238;43.508;4.980;2023-02-20T08:03:21;10.73;;;8.00;;
10383;SDS011;5238;43.508;4.980;2023-02-20T08:05:48;9.93;;;7.97;;
10383;SDS011;5238;43.508;4.980;2023-02-20T08:08:15;9.95;;;8.23;;
10383;SDS011;5238;43.508;4.980;2023-02-20T08:10:42;9.25;;;7.70;;
10383;SDS011;5238;43.508;4.980;2023-02-20T08:13:11;10.07;;;8.02;;
10383;SDS011;5238;43.508;4.980;2023-02-20T08:15:38;10.50;;;8.75;;
10383;SDS011;5238;43.508;4.980;2023-02-20T08:18:05;11.23;;;8.35;;
10383;SDS011;5238;43.508;4.980;2023-02-20T08:20:32;11.50;;;8.70;;
10383;SDS011;5238;43.508;4.980;2023-02-20T08:23:00;9.48;;;8.15;;
10383;SDS011;5238;43.508;4.980;2023-02-20T08:25:29;12.45;;;8.10;;
10383;SDS011;5238;43.508;4.980;2023-02-20T08:27:59;10.90;;;8.25;;
10383;SDS011;5238;43.508;4.980;2023-02-20T08:30:34;11.95;;;9.00;;
10383;SDS011;5238;43.508;4.980;2023-02-20T08:33:01;9.85;;;8.02;;
10383;SDS011;5238;43.508;4.980;2023-02-20T08:35:30;9.57;;;8.23;;
10383;SDS011;5238;43.508;4.980;2023-02-20T08:37:59;10.05;;;8.32;;
10383;SDS011;5238;43.508;4.980;2023-02-20T08:40:26;9.32;;;7.60;;
10383;SDS011;5238;43.508;4.980;2023-02-20T08:42:55;9.75;;;8.30;;
10383;SDS011;5238;43.508;4.980;2023-02-20T08:45:22;10.30;;;7.38;;
10383;SDS011;5238;43.508;4.980;2023-02-20T08:47:51;9.40;;;8.00;;
10383;SDS011;5238;43.508;4.980;2023-02-20T08:50:36;14.75;;;8.55;;
10383;SDS011;5238;43.508;4.980;2023-02-20T08:53:04;14.35;;;9.52;;
10383;SDS011;5238;43.508;4.980;2023-02-20T08:55:31;9.63;;;8.05;;
10383;SDS011;5238;43.508;4.980;2023-02-20T08:57:58;10.23;;;7.45;;
10383;SDS011;5238;43.508;4.980;2023-02-20T09:00:25;11.23;;;8.00;;
10383;SDS011;5238;43.508;4.980;2023-02-20T09:02:53;10.48;;;7.70;;
10383;SDS011;5238;43.508;4.980;2023-02-20T09:05:21;9.27;;;7.35;;
10383;SDS011;5238;43.508;4.980;2023-02-20T09:07:48;7.93;;;7.13;;
10383;SDS011;5238;43.508;4.980;2023-02-20T09:10:16;8.88;;;6.90;;
10383;SDS011;5238;43.508;4.980;2023-02-20T09:12:44;8.30;;;6.82;;
10383;SDS011;5238;43.508;4.980;2023-02-20T09:15:11;10.60;;;7.05;;
10383;SDS011;5238;43.508;4.980;2023-02-20T09:17:42;8.68;;;6.90;;
10383;SDS011;5238;43.508;4.980;2023-02-20T09:20:13;10.70;;;7.18;;
10383;SDS011;5238;43.508;4.980;2023-02-20T09:22:41;9.68;;;7.35;;
10383;SDS011;5238;43.508;4.980;2023-02-20T09:25:14;10.88;;;7.80;;
10383;SDS011;5238;43.508;4.980;2023-02-20T09:27:41;8.43;;;7.55;;
10383;SDS011;5238;43.508;4.980;2023-02-20T09:30:09;8.35;;;7.30;;
10383;SDS011;5238;43.508;4.980;2023-02-20T09:32:41;8.07;;;7.25;;
10383;SDS011;5238;43.508;4.980;2023-02-20T09:35:14;9.10;;;7.45;;
10383;SDS011;5238;43.508;4.980;2023-02-20T09:37:43;8.80;;;7.90;;
10383;SDS011;5238;43.508;4.980;2023-02-20T09:40:10;9.50;;;7.90;;
10383;SDS011;5238;43.508;4.980;2023-02-20T09:42:42;8.65;;;7.82;;
10383;SDS011;5238;43.508;4.980;2023-02-20T09:45:18;9.32;;;7.30;;
10383;SDS011;5238;43.508;4.980;2023-02-20T09:47:57;9.00;;;7.25;;
10383;SDS011;5238;43.508;4.980;2023-02-20T09:50:52;8.70;;;7.55;;
10383;SDS011;5238;43.508;4.980;2023-02-20T09:53:23;9.55;;;7.80;;
10383;SDS011;5238;43.508;4.980;2023-02-20T09:55:56;8.93;;;7.82;;
10383;SDS011;5238;43.508;4.980;2023-02-20T09:58:25;9.30;;;7.60;;
10383;SDS011;5238;43.508;4.980;2023-02-20T10:00:59;9.98;;;7.90;;
10383;SDS011;5238;43.508;4.980;2023-02-20T10:03:31;8.98;;;7.80;;
10383;SDS011;5238;43.508;4.980;2023-02-20T10:06:08;8.27;;;7.35;;
10383;SDS011;5238;43.508;4.980;2023-02-20T10:08:41;9.68;;;7.82;;
10383;SDS011;5238;43.508;4.980;2023-02-20T10:11:09;10.38;;;7.57;;
10383;SDS011;5238;43.508;4.980;2023-02-20T10:13:46;9.48;;;7.47;;
10383;SDS011;5238;43.508;4.980;2023-02-20T10:16:25;8.10;;;6.82;;
10383;SDS011;5238;43.508;4.980;2023-02-20T10:19:13;11.27;;;6.85;;
10383;SDS011;5238;43.508;4.980;2023-02-20T10:22:12;9.43;;;7.28;;
10383;SDS011;5238;43.508;4.980;2023-02-20T10:24:48;10.02;;;7.38;;
10383;SDS011;5238;43.508;4.980;2023-02-20T10:27:27;7.95;;;7.03;;
10383;SDS011;5238;43.508;4.980;2023-02-20T10:29:59;9.18;;;7.10;;
10383;SDS011;5238;43.508;4.980;2023-02-20T10:32:31;9.02;;;6.78;;
10383;SDS011;5238;43.508;4.980;2023-02-20T10:35:04;8.82;;;7.22;;
10383;SDS011;5238;43.508;4.980;2023-02-20T10:37:37;10.52;;;7.50;;
10383;SDS011;5238;43.508;4.980;2023-02-20T10:40:10;7.45;;;6.47;;
10383;SDS011;5238;43.508;4.980;2023-02-20T10:42:45;8.63;;;6.47;;
10383;SDS011;5238;43.508;4.980;2023-02-20T10:45:20;8.93;;;6.25;;
10383;SDS011;5238;43.508;4.980;2023-02-20T10:47:53;8.15;;;6.63;;
10383;SDS011;5238;43.508;4.980;2023-02-20T10:50:43;8.77;;;6.03;;
10383;SDS011;5238;43.508;4.980;2023-02-20T10:53:20;9.93;;;6.47;;
10383;SDS011;5238;43.508;4.980;2023-02-20T10:55:58;7.28;;;5.88;;
10383;SDS011;5238;43.508;4.980;2023-02-20T10:58:33;6.95;;;5.05;;
10383;SDS011;5238;43.508;4.980;2023-02-20T11:01:04;7.97;;;5.22;;
10383;SDS011;5238;43.508;4.980;2023-02-20T11:03:51;7.00;;;5.35;;
10383;SDS011;5238;43.508;4.980;2023-02-20T11:06:24;7.43;;;5.55;;
10383;SDS011;5238;43.508;4.980;2023-02-20T11:08:57;10.43;;;5.78;;
10383;SDS011;5238;43.508;4.980;2023-02-20T11:11:26;8.32;;;6.32;;
10383;SDS011;5238;43.508;4.980;2023-02-20T11:13:57;6.05;;;4.65;;
10383;SDS011;5238;43.508;4.980;2023-02-20T11:16:30;7.60;;;4.80;;
10383;SDS011;5238;43.508;4.980;2023-02-20T11:19:07;8.95;;;5.20;;
10383;SDS011;5238;43.508;4.980;2023-02-20T11:21:39;7.70;;;4.65;;
10383;SDS011;5238;43.508;4.980;2023-02-20T11:24:19;5.85;;;4.45;;
10383;SDS011;5238;43.508;4.980;2023-02-20T11:27:08;6.55;;;4.97;;
10383;SDS011;5238;43.508;4.980;2023-02-20T11:29:41;7.88;;;4.68;;
10383;SDS011;5238;43.508;4.980;2023-02-20T11:32:30;6.18;;;4.53;;
10383;SDS011;5238;43.508;4.980;2023-02-20T11:35:03;6.57;;;4.93;;
10383;SDS011;5238;43.508;4.980;2023-02-20T11:38:14;7.00;;;4.78;;
10383;SDS011;5238;43.508;4.980;2023-02-20T11:41:06;6.57;;;5.25;;
10383;SDS011;5238;43.508;4.980;2023-02-20T11:44:03;7.72;;;5.30;;
10383;SDS011;5238;43.508;4.980;2023-02-20T11:46:38;11.30;;;5.20;;
10383;SDS011;5238;43.508;4.980;2023-02-20T11:49:24;9.00;;;5.18;;
10383;SDS011;5238;43.508;4.980;2023-02-20T11:51:54;6.47;;;3.90;;
10383;SDS011;5238;43.508;4.980;2023-02-20T11:54:33;5.85;;;4.22;;
10383;SDS011;5238;43.508;4.980;2023-02-20T11:57:02;9.48;;;4.65;;
10383;SDS011;5238;43.508;4.980;2023-02-20T11:59:35;7.95;;;4.90;;
10383;SDS011;5238;43.508;4.980;2023-02-20T12:02:23;5.57;;;4.60;;
10383;SDS011;5238;43.508;4.980;2023-02-20T12:05:05;6.75;;;4.85;;
10383;SDS011;5238;43.508;4.980;2023-02-20T12:08:17;8.70;;;4.38;;
10383;SDS011;5238;43.508;4.980;2023-02-20T12:11:05;6.20;;;4.22;;
10383;SDS011;5238;43.508;4.980;2023-02-20T12:13:37;8.38;;;3.90;;
10383;SDS011;5238;43.508;4.980;2023-02-20T12:16:24;4.10;;;3.53;;
10383;SDS011;5238;43.508;4.980;2023-02-20T12:19:10;5.53;;;3.67;;
10383;SDS011;5238;43.508;4.980;2023-02-20T12:21:56;5.20;;;3.42;;
10383;SDS011;5238;43.508;4.980;2023-02-20T12:24:48;7.63;;;3.90;;
10383;SDS011;5238;43.508;4.980;2023-02-20T12:28:06;4.07;;;3.42;;
10383;SDS011;5238;43.508;4.980;2023-02-20T12:30:56;6.28;;;3.38;;
10383;SDS011;5238;43.508;4.980;2023-02-20T12:33:44;5.85;;;3.60;;
10383;SDS011;5238;43.508;4.980;2023-02-20T12:39:07;5.43;;;3.67;;
10383;SDS011;5238;43.508;4.980;2023-02-20T12:41:47;3.97;;;3.42;;
10383;SDS011;5238;43.508;4.980;2023-02-20T12:44:26;3.90;;;3.50;;
10383;SDS011;5238;43.508;4.980;2023-02-20T12:47:12;5.30;;;3.85;;
10383;SDS011;5238;43.508;4.980;2023-02-20T12:49:50;6.60;;;3.92;;
10383;SDS011;5238;43.508;4.980;2023-02-20T12:52:37;7.15;;;3.80;;
10383;SDS011;5238;43.508;4.980;2023-02-20T12:55:17;6.15;;;3.70;;
10383;SDS011;5238;43.508;4.980;2023-02-20T12:57:50;17.38;;;4.47;;
10383;SDS011;5238;43.508;4.980;2023-02-20T13:00:29;6.90;;;3.92;;
10383;SDS011;5238;43.508;4.980;2023-02-20T13:03:01;28.85;;;5.47;;
10383;SDS011;5238;43.508;4.980;2023-02-20T13:05:36;7.38;;;4.18;;
10383;SDS011;5238;43.508;4.980;2023-02-20T13:08:11;4.82;;;3.65;;
10383;SDS011;5238;43.508;4.980;2023-02-20T13:10:45;7.32;;;3.95;;
10383;SDS011;5238;43.508;4.980;2023-02-20T13:13:17;4.38;;;3.60;;
10383;SDS011;5238;43.508;4.980;2023-02-20T13:15:48;7.93;;;4.55;;
10383;SDS011;5238;43.508;4.980;2023-02-20T13:18:45;5.30;;;3.83;;
10383;SDS011;5238;43.508;4.980;2023-02-20T13:21:17;6.18;;;4.32;;
10383;SDS011;5238;43.508;4.980;2023-02-20T13:23:48;7.40;;;4.07;;
10383;SDS011;5238;43.508;4.980;2023-02-20T13:29:14;6.57;;;3.92;;
10383;SDS011;5238;43.508;4.980;2023-02-20T13:31:44;6.63;;;4.15;;
10383;SDS011;5238;43.508;4.980;2023-02-20T13:34:25;10.93;;;4.20;;
10383;SDS011;5238;43.508;4.980;2023-02-20T13:37:03;5.93;;;4.07;;
10383;SDS011;5238;43.508;4.980;2023-02-20T13:39:42;10.32;;;3.80;;
10383;SDS011;5238;43.508;4.980;2023-02-20T13:44:59;6.03;;;3.97;;
10383;SDS011;5238;43.508;4.980;2023-02-20T13:47:28;8.02;;;4.22;;
10383;SDS011;5238;43.508;4.980;2023-02-20T13:53:02;9.00;;;5.07;;
10383;SDS011;5238;43.508;4.980;2023-02-20T13:55:30;6.72;;;4.95;;
10383;SDS011;5238;43.508;4.980;2023-02-20T13:58:01;6.88;;;4.43;;
10383;SDS011;5238;43.508;4.980;2023-02-20T14:00:35;7.88;;;4.50;;
10383;SDS011;5238;43.508;4.980;2023-02-20T14:03:13;6.07;;;5.03;;
10383;SDS011;5238;43.508;4.980;2023-02-20T14:05:54;5.85;;;4.95;;
10383;SDS011;5238;43.508;4.980;2023-02-20T14:08:31;7.35;;;4.68;;
10383;SDS011;5238;43.508;4.980;2023-02-20T14:11:02;15.02;;;5.10;;
10383;SDS011;5238;43.508;4.980;2023-02-20T14:13:31;8.43;;;4.90;;
10383;SDS011;5238;43.508;4.980;2023-02-20T14:16:00;6.97;;;4.88;;
10383;SDS011;5238;43.508;4.980;2023-02-20T14:18:28;9.35;;;4.93;;
10383;SDS011;5238;43.508;4.980;2023-02-20T14:21:10;11.77;;;5.25;;
10383;SDS011;5238;43.508;4.980;2023-02-20T14:23:43;8.75;;;5.10;;
10383;SDS011;5238;43.508;4.980;2023-02-20T14:26:17;10.88;;;5.07;;
10383;SDS011;5238;43.508;4.980;2023-02-20T14:28:47;8.88;;;5.13;;
10383;SDS011;5238;43.508;4.980;2023-02-20T14:31:21;8.35;;;5.38;;
10383;SDS011;5238;43.508;4.980;2023-02-20T14:33:50;9.02;;;5.10;;
10383;SDS011;5238;43.508;4.980;2023-02-20T14:36:35;10.15;;;5.07;;
10383;SDS011;5238;43.508;4.980;2023-02-20T14:39:25;9.20;;;4.53;;
10383;SDS011;5238;43.508;4.980;2023-02-20T14:42:01;7.07;;;4.60;;
10383;SDS011;5238;43.508;4.980;2023-02-20T14:44:31;6.72;;;4.90;;
10383;SDS011;5238;43.508;4.980;2023-02-20T14:47:00;6.60;;;4.65;;
10383;SDS011;5238;43.508;4.980;2023-02-20T14:49:33;6.05;;;4.78;;
10383;SDS011;5238;43.508;4.980;2023-02-20T14:52:06;9.85;;;5.28;;
10383;SDS011;5238;43.508;4.980;2023-02-20T14:54:54;8.43;;;5.25;;
10383;SDS011;5238;43.508;4.980;2023-02-20T14:57:36;6.95;;;4.82;;
10383;SDS011;5238;43.508;4.980;2023-02-20T15:00:21;9.02;;;4.63;;
10383;SDS011;5238;43.508;4.980;2023-02-20T15:02:52;16.25;;;5.05;;
10383;SDS011;5238;43.508;4.980;2023-02-20T15:05:25;12.05;;;5.18;;
10383;SDS011;5238;43.508;4.980;2023-02-20T15:08:01;8.63;;;4.85;;
10383;SDS011;5238;43.508;4.980;2023-02-20T15:10:34;5.75;;;4.50;;
10383;SDS011;5238;43.508;4.980;2023-02-20T15:13:06;7.32;;;5.10;;
10383;SDS011;5238;43.508;4.980;2023-02-20T15:15:35;7.80;;;5.30;;
10383;SDS011;5238;43.508;4.980;2023-02-20T15:18:05;14.90;;;5.57;;
10383;SDS011;5238;43.508;4.980;2023-02-20T15:20:34;8.73;;;5.05;;
10383;SDS011;5238;43.508;4.980;2023-02-20T15:23:09;10.52;;;5.32;;
10383;SDS011;5238;43.508;4.980;2023-02-20T15:25:46;10.38;;;5.30;;
10383;SDS011;5238;43.508;4.980;2023-02-20T15:28:22;8.57;;;4.93;;
10383;SDS011;5238;43.508;4.980;2023-02-20T15:33:50;7.25;;;4.97;;
10383;SDS011;5238;43.508;4.980;2023-02-20T15:36:19;8.15;;;5.40;;
10383;SDS011;5238;43.508;4.980;2023-02-20T15:38:51;9.25;;;5.05;;
10383;SDS011;5238;43.508;4.980;2023-02-20T15:41:19;7.30;;;5.18;;
10383;SDS011;5238;43.508;4.980;2023-02-20T15:43:47;9.10;;;5.20;;
10383;SDS011;5238;43.508;4.980;2023-02-20T15:46:14;8.50;;;5.22;;
10383;SDS011;5238;43.508;4.980;2023-02-20T15:48:42;7.07;;;5.15;;
10383;SDS011;5238;43.508;4.980;2023-02-20T15:51:09;7.45;;;5.63;;
10383;SDS011;5238;43.508;4.980;2023-02-20T15:53:45;9.10;;;6.20;;
10383;SDS011;5238;43.508;4.980;2023-02-20T15:56:15;11.45;;;5.90;;
10383;SDS011;5238;43.508;4.980;2023-02-20T15:58:44;9.50;;;6.00;;
10383;SDS011;5238;43.508;4.980;2023-02-20T16:01:12;8.80;;;5.80;;
10383;SDS011;5238;43.508;4.980;2023-02-20T16:03:41;11.45;;;6.07;;
10383;SDS011;5238;43.508;4.980;2023-02-20T16:06:10;6.93;;;5.55;;
10383;SDS011;5238;43.508;4.980;2023-02-20T16:08:45;6.43;;;5.10;;
10383;SDS011;5238;43.508;4.980;2023-02-20T16:11:30;10.52;;;5.82;;
10383;SDS011;5238;43.508;4.980;2023-02-20T16:14:01;10.32;;;5.53;;
10383;SDS011;5238;43.508;4.980;2023-02-20T16:16:29;6.80;;;5.10;;
10383;SDS011;5238;43.508;4.980;2023-02-20T16:18:59;8.55;;;5.25;;
10383;SDS011;5238;43.508;4.980;2023-02-20T16:21:27;8.90;;;5.35;;